sensor_id;sensor_type;location;lat;lon;timestamp;P1;durP1;ratioP1;P2;durP2;ratioP2
15502;SDS011;7853;52.186;5.948;2023-06-04T00:03:03;2.35;;;1.79;;
15502;SDS011;7853;52.186;5.948;2023-06-04T00:03:05;2.55;;;1.69;;
15502;SDS011;7853;52.186;5.948;2023-06-04T00:03:57;2.84;;;1.54;;
15502;SDS011;7853;52.186;5.948;2023-06-04T00:04:49;4.38;;;1.70;;
15502;SDS011;7853;52.186;5.948;2023-06-04T00:05:41;3.34;;;2.01;;
15502;SDS011;7853;52.186;5.948;2023-06-04T00:06:37;2.14;;;1.66;;
15502;SDS011;7853;52.186;5.948;2023-06-04T00:07:36;2.27;;;1.65;;
15502;SDS011;7853;52.186;5.948;2023-06-04T00:08:34;2.52;;;1.62;;
15502;SDS011;7853;52.186;5.948;2023-06-04T00:09:33;2.75;;;1.93;;
15502;SDS011;7853;52.186;5.948;2023-06-04T00:10:33;2.53;;;1.65;;
15502;SDS011;7853;52.186;5.948;2023-06-04T00:11:33;2.29;;;1.61;;
15502;SDS011;7853;52.186;5.948;2023-06-04T00:12:33;2.27;;;1.69;;
15502;SDS011;7853;52.186;5.948;2023-06-04T00:13:33;4.17;;;2.14;;
15502;SDS011;7853;52.186;5.948;2023-06-04T00:14:33;4.39;;;1.95;;
15502;SDS011;7853;52.186;5.948;2023-06-04T00:15:33;2.97;;;1.82;;
15502;SDS011;7853;52.186;5.948;2023-06-04T00:16:33;2.72;;;1.89;;
15502;SDS011;7853;52.186;5.948;2023-06-04T00:17:33;2.57;;;1.72;;
15502;SDS011;7853;52.186;5.948;2023-06-04T00:18:33;3.38;;;1.93;;
15502;SDS011;7853;52.186;5.948;2023-06-04T00:19:33;2.50;;;1.73;;
15502;SDS011;7853;52.186;5.948;2023-06-04T00:20:33;2.84;;;1.72;;
15502;SDS011;7853;52.186;5.948;2023-06-04T00:21:34;4.24;;;1.76;;
15502;SDS011;7853;52.186;5.948;2023-06-04T00:22:34;2.88;;;1.69;;
15502;SDS011;7853;52.186;5.948;2023-06-04T00:23:34;2.98;;;1.73;;
15502;SDS011;7853;52.186;5.948;2023-06-04T00:24:34;3.07;;;1.76;;
15502;SDS011;7853;52.186;5.948;2023-06-04T00:25:34;2.70;;;1.93;;
15502;SDS011;7853;52.186;5.948;2023-06-04T00:26:34;2.18;;;1.69;;
15502;SDS011;7853;52.186;5.948;2023-06-04T00:27:34;2.97;;;1.83;;
15502;SDS011;7853;52.186;5.948;2023-06-04T00:28:34;3.04;;;1.88;;
15502;SDS011;7853;52.186;5.948;2023-06-04T00:29:34;3.27;;;1.99;;
15502;SDS011;7853;52.186;5.948;2023-06-04T00:30:34;2.93;;;2.05;;
15502;SDS011;7853;52.186;5.948;2023-06-04T00:31:34;3.03;;;2.13;;
15502;SDS011;7853;52.186;5.948;2023-06-04T00:32:34;4.04;;;2.21;;
15502;SDS011;7853;52.186;5.948;2023-06-04T00:33:34;2.71;;;2.04;;
15502;SDS011;7853;52.186;5.948;2023-06-04T00:34:34;3.58;;;2.23;;
15502;SDS011;7853;52.186;5.948;2023-06-04T00:35:34;3.60;;;2.39;;
15502;SDS011;7853;52.186;5.948;2023-06-04T00:36:34;2.68;;;2.18;;
15502;SDS011;7853;52.186;5.948;2023-06-04T00:37:34;2.64;;;2.07;;
15502;SDS011;7853;52.186;5.948;2023-06-04T00:38:34;3.28;;;2.13;;
15502;SDS011;7853;52.186;5.948;2023-06-04T00:39:34;4.44;;;2.39;;
15502;SDS011;7853;52.186;5.948;2023-06-04T00:40:34;3.48;;;2.26;;
15502;SDS011;7853;52.186;5.948;2023-06-04T00:41:34;3.89;;;2.21;;
15502;SDS011;7853;52.186;5.948;2023-06-04T00:42:34;3.52;;;2.14;;
15502;SDS011;7853;52.186;5.948;2023-06-04T00:43:34;3.52;;;2.17;;
15502;SDS011;7853;52.186;5.948;2023-06-04T00:44:34;3.26;;;2.12;;
15502;SDS011;7853;52.186;5.948;2023-06-04T00:45:34;3.67;;;2.25;;
15502;SDS011;7853;52.186;5.948;2023-06-04T00:46:34;3.00;;;2.23;;
15502;SDS011;7853;52.186;5.948;2023-06-04T00:47:35;3.52;;;2.21;;
15502;SDS011;7853;52.186;5.948;2023-06-04T00:48:34;3.29;;;2.07;;
15502;SDS011;7853;52.186;5.948;2023-06-04T00:49:34;3.01;;;2.08;;
15502;SDS011;7853;52.186;5.948;2023-06-04T00:50:34;3.79;;;2.25;;
15502;SDS011;7853;52.186;5.948;2023-06-04T00:51:34;2.94;;;2.33;;
15502;SDS011;7853;52.186;5.948;2023-06-04T00:52:34;2.85;;;2.32;;
15502;SDS011;7853;52.186;5.948;2023-06-04T00:53:34;2.87;;;2.33;;
15502;SDS011;7853;52.186;5.948;2023-06-04T00:54:34;3.34;;;2.21;;
15502;SDS011;7853;52.186;5.948;2023-06-04T00:55:34;3.17;;;2.14;;
15502;SDS011;7853;52.186;5.948;2023-06-04T00:56:34;2.95;;;2.04;;
15502;SDS011;7853;52.186;5.948;2023-06-04T00:57:34;2.79;;;1.98;;
15502;SDS011;7853;52.186;5.948;2023-06-04T00:58:37;2.89;;;1.96;;
15502;SDS011;7853;52.186;5.948;2023-06-04T00:59:35;3.74;;;2.19;;
15502;SDS011;7853;52.186;5.948;2023-06-04T01:00:34;3.02;;;2.11;;
15502;SDS011;7853;52.186;5.948;2023-06-04T01:01:37;4.52;;;2.08;;
15502;SDS011;7853;52.186;5.948;2023-06-04T01:02:34;2.71;;;2.10;;
15502;SDS011;7853;52.186;5.948;2023-06-04T01:03:34;2.82;;;2.13;;
15502;SDS011;7853;52.186;5.948;2023-06-04T01:04:36;3.08;;;2.14;;
15502;SDS011;7853;52.186;5.948;2023-06-04T01:05:36;3.61;;;2.08;;
15502;SDS011;7853;52.186;5.948;2023-06-04T01:06:35;3.45;;;2.11;;
15502;SDS011;7853;52.186;5.948;2023-06-04T01:07:34;3.13;;;2.16;;
15502;SDS011;7853;52.186;5.948;2023-06-04T01:08:34;2.53;;;2.01;;
15502;SDS011;7853;52.186;5.948;2023-06-04T01:09:35;2.41;;;1.93;;
15502;SDS011;7853;52.186;5.948;2023-06-04T01:10:34;3.39;;;2.23;;
15502;SDS011;7853;52.186;5.948;2023-06-04T01:11:35;3.99;;;2.07;;
15502;SDS011;7853;52.186;5.948;2023-06-04T01:12:34;3.74;;;2.33;;
15502;SDS011;7853;52.186;5.948;2023-06-04T01:13:34;3.33;;;2.13;;
15502;SDS011;7853;52.186;5.948;2023-06-04T01:14:34;3.60;;;2.16;;
15502;SDS011;7853;52.186;5.948;2023-06-04T01:15:34;4.71;;;2.31;;
15502;SDS011;7853;52.186;5.948;2023-06-04T01:16:35;3.65;;;2.10;;
15502;SDS011;7853;52.186;5.948;2023-06-04T01:17:36;3.67;;;2.26;;
15502;SDS011;7853;52.186;5.948;2023-06-04T01:18:34;3.26;;;2.32;;
15502;SDS011;7853;52.186;5.948;2023-06-04T01:19:45;4.99;;;2.63;;
15502;SDS011;7853;52.186;5.948;2023-06-04T01:20:49;3.69;;;2.34;;
15502;SDS011;7853;52.186;5.948;2023-06-04T01:21:42;3.71;;;2.64;;
15502;SDS011;7853;52.186;5.948;2023-06-04T01:22:39;4.26;;;2.60;;
15502;SDS011;7853;52.186;5.948;2023-06-04T01:23:37;4.34;;;2.66;;
15502;SDS011;7853;52.186;5.948;2023-06-04T01:24:35;5.82;;;2.96;;
15502;SDS011;7853;52.186;5.948;2023-06-04T01:25:34;5.45;;;2.77;;
15502;SDS011;7853;52.186;5.948;2023-06-04T01:26:34;3.71;;;2.71;;
15502;SDS011;7853;52.186;5.948;2023-06-04T01:27:33;3.98;;;2.63;;
15502;SDS011;7853;52.186;5.948;2023-06-04T01:28:34;3.15;;;2.46;;
15502;SDS011;7853;52.186;5.948;2023-06-04T01:29:33;3.86;;;2.53;;
15502;SDS011;7853;52.186;5.948;2023-06-04T01:30:34;4.07;;;2.39;;
15502;SDS011;7853;52.186;5.948;2023-06-04T01:31:34;3.19;;;2.41;;
15502;SDS011;7853;52.186;5.948;2023-06-04T01:32:34;3.59;;;2.44;;
15502;SDS011;7853;52.186;5.948;2023-06-04T01:33:34;2.79;;;2.05;;
15502;SDS011;7853;52.186;5.948;2023-06-04T01:34:42;4.00;;;2.10;;
15502;SDS011;7853;52.186;5.948;2023-06-04T01:35:34;3.86;;;2.29;;
15502;SDS011;7853;52.186;5.948;2023-06-04T01:36:34;3.00;;;2.15;;
15502;SDS011;7853;52.186;5.948;2023-06-04T01:37:34;2.93;;;2.05;;
15502;SDS011;7853;52.186;5.948;2023-06-04T01:38:34;3.21;;;2.12;;
15502;SDS011;7853;52.186;5.948;2023-06-04T01:39:34;2.80;;;1.92;;
15502;SDS011;7853;52.186;5.948;2023-06-04T01:40:34;2.80;;;1.98;;
15502;SDS011;7853;52.186;5.948;2023-06-04T01:41:34;3.06;;;2.15;;
15502;SDS011;7853;52.186;5.948;2023-06-04T01:42:34;3.72;;;2.06;;
15502;SDS011;7853;52.186;5.948;2023-06-04T01:43:34;3.92;;;2.21;;
15502;SDS011;7853;52.186;5.948;2023-06-04T01:44:34;2.83;;;1.86;;
15502;SDS011;7853;52.186;5.948;2023-06-04T01:45:34;2.77;;;2.00;;
15502;SDS011;7853;52.186;5.948;2023-06-04T01:46:34;3.34;;;1.95;;
15502;SDS011;7853;52.186;5.948;2023-06-04T01:47:34;2.31;;;1.75;;
15502;SDS011;7853;52.186;5.948;2023-06-04T01:48:34;2.63;;;1.80;;
15502;SDS011;7853;52.186;5.948;2023-06-04T01:49:34;3.40;;;1.82;;
15502;SDS011;7853;52.186;5.948;2023-06-04T01:50:34;3.98;;;1.84;;
15502;SDS011;7853;52.186;5.948;2023-06-04T01:51:34;2.99;;;2.00;;
15502;SDS011;7853;52.186;5.948;2023-06-04T01:52:34;3.56;;;2.02;;
15502;SDS011;7853;52.186;5.948;2023-06-04T01:53:34;4.37;;;1.88;;
15502;SDS011;7853;52.186;5.948;2023-06-04T01:54:34;3.64;;;2.23;;
15502;SDS011;7853;52.186;5.948;2023-06-04T01:55:34;2.56;;;1.85;;
15502;SDS011;7853;52.186;5.948;2023-06-04T01:56:34;2.08;;;1.83;;
15502;SDS011;7853;52.186;5.948;2023-06-04T01:57:34;3.61;;;1.85;;
15502;SDS011;7853;52.186;5.948;2023-06-04T01:58:34;3.30;;;1.85;;
15502;SDS011;7853;52.186;5.948;2023-06-04T01:59:34;3.17;;;1.96;;
15502;SDS011;7853;52.186;5.948;2023-06-04T02:00:34;2.61;;;1.85;;
15502;SDS011;7853;52.186;5.948;2023-06-04T02:01:34;2.36;;;1.82;;
15502;SDS011;7853;52.186;5.948;2023-06-04T02:02:34;3.03;;;2.12;;
15502;SDS011;7853;52.186;5.948;2023-06-04T02:03:34;2.59;;;1.83;;
15502;SDS011;7853;52.186;5.948;2023-06-04T02:04:34;2.77;;;1.75;;
15502;SDS011;7853;52.186;5.948;2023-06-04T02:05:34;2.88;;;1.86;;
15502;SDS011;7853;52.186;5.948;2023-06-04T02:06:34;3.10;;;1.89;;
15502;SDS011;7853;52.186;5.948;2023-06-04T02:07:34;3.28;;;1.98;;
15502;SDS011;7853;52.186;5.948;2023-06-04T02:08:34;3.31;;;2.11;;
15502;SDS011;7853;52.186;5.948;2023-06-04T02:09:34;3.44;;;1.92;;
15502;SDS011;7853;52.186;5.948;2023-06-04T02:10:34;2.69;;;1.96;;
15502;SDS011;7853;52.186;5.948;2023-06-04T02:11:34;2.54;;;2.00;;
15502;SDS011;7853;52.186;5.948;2023-06-04T02:12:36;4.05;;;2.19;;
15502;SDS011;7853;52.186;5.948;2023-06-04T02:13:34;4.46;;;2.32;;
15502;SDS011;7853;52.186;5.948;2023-06-04T02:14:34;3.57;;;2.29;;
15502;SDS011;7853;52.186;5.948;2023-06-04T02:15:34;4.35;;;2.31;;
15502;SDS011;7853;52.186;5.948;2023-06-04T02:16:34;3.36;;;2.09;;
15502;SDS011;7853;52.186;5.948;2023-06-04T02:17:34;3.24;;;2.24;;
15502;SDS011;7853;52.186;5.948;2023-06-04T02:18:34;2.88;;;2.33;;
15502;SDS011;7853;52.186;5.948;2023-06-04T02:19:34;3.27;;;2.19;;
15502;SDS011;7853;52.186;5.948;2023-06-04T02:20:34;3.71;;;2.49;;
15502;SDS011;7853;52.186;5.948;2023-06-04T02:21:34;3.16;;;2.21;;
15502;SDS011;7853;52.186;5.948;2023-06-04T02:22:34;4.59;;;2.46;;
15502;SDS011;7853;52.186;5.948;2023-06-04T02:23:34;3.32;;;1.98;;
15502;SDS011;7853;52.186;5.948;2023-06-04T02:24:34;3.37;;;2.07;;
15502;SDS011;7853;52.186;5.948;2023-06-04T02:25:34;2.62;;;1.95;;
15502;SDS011;7853;52.186;5.948;2023-06-04T02:26:34;2.44;;;1.92;;
15502;SDS011;7853;52.186;5.948;2023-06-04T02:27:35;3.45;;;1.95;;
15502;SDS011;7853;52.186;5.948;2023-06-04T02:28:34;3.24;;;2.27;;
15502;SDS011;7853;52.186;5.948;2023-06-04T02:29:34;4.07;;;2.00;;
15502;SDS011;7853;52.186;5.948;2023-06-04T02:30:34;3.98;;;1.84;;
15502;SDS011;7853;52.186;5.948;2023-06-04T02:31:34;3.00;;;1.73;;
15502;SDS011;7853;52.186;5.948;2023-06-04T02:32:34;2.61;;;1.87;;
15502;SDS011;7853;52.186;5.948;2023-06-04T02:33:34;2.42;;;1.75;;
15502;SDS011;7853;52.186;5.948;2023-06-04T02:34:35;3.21;;;1.67;;
15502;SDS011;7853;52.186;5.948;2023-06-04T02:35:35;2.86;;;1.83;;
15502;SDS011;7853;52.186;5.948;2023-06-04T02:36:34;2.40;;;1.85;;
15502;SDS011;7853;52.186;5.948;2023-06-04T02:37:34;3.24;;;1.85;;
15502;SDS011;7853;52.186;5.948;2023-06-04T02:38:34;2.75;;;1.68;;
15502;SDS011;7853;52.186;5.948;2023-06-04T02:39:35;2.45;;;1.69;;
15502;SDS011;7853;52.186;5.948;2023-06-04T02:40:34;2.58;;;1.56;;
15502;SDS011;7853;52.186;5.948;2023-06-04T02:41:34;2.78;;;1.77;;
15502;SDS011;7853;52.186;5.948;2023-06-04T02:42:34;2.51;;;1.79;;
15502;SDS011;7853;52.186;5.948;2023-06-04T02:43:34;3.23;;;1.87;;
15502;SDS011;7853;52.186;5.948;2023-06-04T02:44:34;2.50;;;1.74;;
15502;SDS011;7853;52.186;5.948;2023-06-04T02:45:34;2.91;;;1.87;;
15502;SDS011;7853;52.186;5.948;2023-06-04T02:46:34;2.37;;;2.05;;
15502;SDS011;7853;52.186;5.948;2023-06-04T02:47:34;2.65;;;1.90;;
15502;SDS011;7853;52.186;5.948;2023-06-04T02:48:34;2.06;;;1.82;;
15502;SDS011;7853;52.186;5.948;2023-06-04T02:49:34;2.50;;;1.72;;
15502;SDS011;7853;52.186;5.948;2023-06-04T02:50:34;2.48;;;1.68;;
15502;SDS011;7853;52.186;5.948;2023-06-04T02:51:34;2.46;;;1.62;;
15502;SDS011;7853;52.186;5.948;2023-06-04T02:52:34;3.20;;;1.60;;
15502;SDS011;7853;52.186;5.948;2023-06-04T02:53:34;2.76;;;1.64;;
15502;SDS011;7853;52.186;5.948;2023-06-04T02:54:34;2.64;;;1.82;;
15502;SDS011;7853;52.186;5.948;2023-06-04T02:55:34;2.47;;;1.86;;
15502;SDS011;7853;52.186;5.948;2023-06-04T02:56:36;3.81;;;2.16;;
15502;SDS011;7853;52.186;5.948;2023-06-04T02:57:34;3.50;;;1.84;;
15502;SDS011;7853;52.186;5.948;2023-06-04T02:58:34;2.71;;;1.93;;
15502;SDS011;7853;52.186;5.948;2023-06-04T02:59:34;2.36;;;1.80;;
15502;SDS011;7853;52.186;5.948;2023-06-04T03:00:34;2.89;;;1.75;;
15502;SDS011;7853;52.186;5.948;2023-06-04T03:01:35;2.85;;;1.91;;
15502;SDS011;7853;52.186;5.948;2023-06-04T03:02:34;2.67;;;1.89;;
15502;SDS011;7853;52.186;5.948;2023-06-04T03:03:35;3.48;;;1.80;;
15502;SDS011;7853;52.186;5.948;2023-06-04T03:04:34;3.01;;;1.76;;
15502;SDS011;7853;52.186;5.948;2023-06-04T03:05:34;3.01;;;1.82;;
15502;SDS011;7853;52.186;5.948;2023-06-04T03:06:35;3.89;;;2.03;;
15502;SDS011;7853;52.186;5.948;2023-06-04T03:07:34;3.40;;;1.85;;
15502;SDS011;7853;52.186;5.948;2023-06-04T03:08:34;3.01;;;1.91;;
15502;SDS011;7853;52.186;5.948;2023-06-04T03:09:34;2.53;;;2.05;;
15502;SDS011;7853;52.186;5.948;2023-06-04T03:10:34;2.57;;;1.89;;
15502;SDS011;7853;52.186;5.948;2023-06-04T03:11:34;3.37;;;1.96;;
15502;SDS011;7853;52.186;5.948;2023-06-04T03:12:34;3.01;;;2.00;;
15502;SDS011;7853;52.186;5.948;2023-06-04T03:13:35;3.27;;;1.83;;
15502;SDS011;7853;52.186;5.948;2023-06-04T03:14:34;3.28;;;1.94;;
15502;SDS011;7853;52.186;5.948;2023-06-04T03:15:34;3.41;;;1.84;;
15502;SDS011;7853;52.186;5.948;2023-06-04T03:16:34;2.56;;;1.91;;
15502;SDS011;7853;52.186;5.948;2023-06-04T03:17:34;3.00;;;1.94;;
15502;SDS011;7853;52.186;5.948;2023-06-04T03:18:35;2.84;;;2.13;;
15502;SDS011;7853;52.186;5.948;2023-06-04T03:19:35;2.61;;;2.05;;
15502;SDS011;7853;52.186;5.948;2023-06-04T03:20:34;2.52;;;2.02;;
15502;SDS011;7853;52.186;5.948;2023-06-04T03:21:35;2.54;;;1.86;;
15502;SDS011;7853;52.186;5.948;2023-06-04T03:22:34;2.78;;;1.75;;
15502;SDS011;7853;52.186;5.948;2023-06-04T03:23:34;2.37;;;1.96;;
15502;SDS011;7853;52.186;5.948;2023-06-04T03:24:36;2.91;;;1.99;;
15502;SDS011;7853;52.186;5.948;2023-06-04T03:25:34;2.51;;;1.93;;
15502;SDS011;7853;52.186;5.948;2023-06-04T03:26:34;2.94;;;2.04;;
15502;SDS011;7853;52.186;5.948;2023-06-04T03:27:34;2.93;;;2.09;;
15502;SDS011;7853;52.186;5.948;2023-06-04T03:28:34;3.43;;;1.88;;
15502;SDS011;7853;52.186;5.948;2023-06-04T03:29:35;3.72;;;2.23;;
15502;SDS011;7853;52.186;5.948;2023-06-04T03:30:34;2.98;;;1.85;;
15502;SDS011;7853;52.186;5.948;2023-06-04T03:31:34;3.48;;;2.16;;
15502;SDS011;7853;52.186;5.948;2023-06-04T03:32:34;3.09;;;2.02;;
15502;SDS011;7853;52.186;5.948;2023-06-04T03:33:34;3.13;;;2.15;;
15502;SDS011;7853;52.186;5.948;2023-06-04T03:34:34;3.82;;;2.05;;
15502;SDS011;7853;52.186;5.948;2023-06-04T03:35:35;2.44;;;1.94;;
15502;SDS011;7853;52.186;5.948;2023-06-04T03:36:34;2.56;;;2.10;;
15502;SDS011;7853;52.186;5.948;2023-06-04T03:37:34;3.59;;;2.21;;
15502;SDS011;7853;52.186;5.948;2023-06-04T03:38:35;3.59;;;1.98;;
15502;SDS011;7853;52.186;5.948;2023-06-04T03:39:34;3.44;;;1.94;;
15502;SDS011;7853;52.186;5.948;2023-06-04T03:40:35;3.15;;;2.34;;
15502;SDS011;7853;52.186;5.948;2023-06-04T03:41:34;2.93;;;2.11;;
15502;SDS011;7853;52.186;5.948;2023-06-04T03:42:34;3.12;;;1.99;;
15502;SDS011;7853;52.186;5.948;2023-06-04T03:43:34;3.23;;;2.36;;
15502;SDS011;7853;52.186;5.948;2023-06-04T03:44:34;4.10;;;2.02;;
15502;SDS011;7853;52.186;5.948;2023-06-04T03:45:35;3.65;;;1.97;;
15502;SDS011;7853;52.186;5.948;2023-06-04T03:46:34;3.08;;;2.10;;
15502;SDS011;7853;52.186;5.948;2023-06-04T03:47:35;3.91;;;1.87;;
15502;SDS011;7853;52.186;5.948;2023-06-04T03:48:34;3.19;;;1.96;;
15502;SDS011;7853;52.186;5.948;2023-06-04T03:49:34;2.96;;;1.94;;
15502;SDS011;7853;52.186;5.948;2023-06-04T03:50:34;3.39;;;1.95;;
15502;SDS011;7853;52.186;5.948;2023-06-04T03:51:35;3.07;;;1.97;;
15502;SDS011;7853;52.186;5.948;2023-06-04T03:52:35;3.60;;;2.07;;
15502;SDS011;7853;52.186;5.948;2023-06-04T03:53:35;3.77;;;1.97;;
15502;SDS011;7853;52.186;5.948;2023-06-04T03:54:37;3.29;;;2.12;;
15502;SDS011;7853;52.186;5.948;2023-06-04T03:55:33;2.91;;;1.94;;
15502;SDS011;7853;52.186;5.948;2023-06-04T03:56:34;2.74;;;1.95;;
15502;SDS011;7853;52.186;5.948;2023-06-04T03:57:34;2.61;;;1.99;;
15502;SDS011;7853;52.186;5.948;2023-06-04T03:58:34;4.91;;;2.07;;
15502;SDS011;7853;52.186;5.948;2023-06-04T03:59:34;3.48;;;2.01;;
15502;SDS011;7853;52.186;5.948;2023-06-04T04:00:34;3.17;;;1.92;;
15502;SDS011;7853;52.186;5.948;2023-06-04T04:01:34;3.86;;;2.19;;
15502;SDS011;7853;52.186;5.948;2023-06-04T04:02:34;4.02;;;2.09;;
15502;SDS011;7853;52.186;5.948;2023-06-04T04:03:34;3.89;;;2.11;;
15502;SDS011;7853;52.186;5.948;2023-06-04T04:04:34;3.68;;;2.18;;
15502;SDS011;7853;52.186;5.948;2023-06-04T04:05:35;3.21;;;2.01;;
15502;SDS011;7853;52.186;5.948;2023-06-04T04:06:34;3.26;;;2.16;;
15502;SDS011;7853;52.186;5.948;2023-06-04T04:07:34;3.75;;;2.16;;
15502;SDS011;7853;52.186;5.948;2023-06-04T04:08:35;4.01;;;2.19;;
15502;SDS011;7853;52.186;5.948;2023-06-04T04:09:34;3.84;;;1.86;;
15502;SDS011;7853;52.186;5.948;2023-06-04T04:10:34;4.64;;;2.25;;
15502;SDS011;7853;52.186;5.948;2023-06-04T04:11:34;4.20;;;2.15;;
15502;SDS011;7853;52.186;5.948;2023-06-04T04:12:35;3.36;;;2.09;;
15502;SDS011;7853;52.186;5.948;2023-06-04T04:13:34;4.16;;;2.07;;
15502;SDS011;7853;52.186;5.948;2023-06-04T04:14:35;3.84;;;2.24;;
15502;SDS011;7853;52.186;5.948;2023-06-04T04:15:34;4.84;;;2.24;;
15502;SDS011;7853;52.186;5.948;2023-06-04T04:16:34;3.54;;;2.25;;
15502;SDS011;7853;52.186;5.948;2023-06-04T04:17:35;4.80;;;2.34;;
15502;SDS011;7853;52.186;5.948;2023-06-04T04:18:35;3.67;;;2.24;;
15502;SDS011;7853;52.186;5.948;2023-06-04T04:19:35;3.19;;;2.30;;
15502;SDS011;7853;52.186;5.948;2023-06-04T04:20:34;4.14;;;2.29;;
15502;SDS011;7853;52.186;5.948;2023-06-04T04:21:34;5.35;;;2.45;;
15502;SDS011;7853;52.186;5.948;2023-06-04T04:22:34;3.72;;;2.22;;
15502;SDS011;7853;52.186;5.948;2023-06-04T04:23:34;3.86;;;2.22;;
15502;SDS011;7853;52.186;5.948;2023-06-04T04:24:34;4.29;;;2.24;;
15502;SDS011;7853;52.186;5.948;2023-06-04T04:25:35;3.60;;;2.16;;
15502;SDS011;7853;52.186;5.948;2023-06-04T04:26:34;4.72;;;2.70;;
15502;SDS011;7853;52.186;5.948;2023-06-04T04:27:35;4.06;;;2.35;;
15502;SDS011;7853;52.186;5.948;2023-06-04T04:28:35;4.31;;;2.38;;
15502;SDS011;7853;52.186;5.948;2023-06-04T04:29:34;4.79;;;2.45;;
15502;SDS011;7853;52.186;5.948;2023-06-04T04:30:35;3.36;;;2.21;;
15502;SDS011;7853;52.186;5.948;2023-06-04T04:31:34;3.45;;;2.24;;
15502;SDS011;7853;52.186;5.948;2023-06-04T04:32:34;3.86;;;2.41;;
15502;SDS011;7853;52.186;5.948;2023-06-04T04:33:35;4.46;;;2.34;;
15502;SDS011;7853;52.186;5.948;2023-06-04T04:34:34;4.67;;;2.28;;
15502;SDS011;7853;52.186;5.948;2023-06-04T04:35:34;4.00;;;2.21;;
15502;SDS011;7853;52.186;5.948;2023-06-04T04:36:34;4.00;;;2.25;;
15502;SDS011;7853;52.186;5.948;2023-06-04T04:37:34;4.78;;;2.36;;
15502;SDS011;7853;52.186;5.948;2023-06-04T04:38:34;4.58;;;2.71;;
15502;SDS011;7853;52.186;5.948;2023-06-04T04:39:35;6.04;;;2.52;;
15502;SDS011;7853;52.186;5.948;2023-06-04T04:40:34;4.84;;;2.36;;
15502;SDS011;7853;52.186;5.948;2023-06-04T04:41:35;5.04;;;2.20;;
15502;SDS011;7853;52.186;5.948;2023-06-04T04:42:35;3.74;;;2.16;;
15502;SDS011;7853;52.186;5.948;2023-06-04T04:43:35;4.40;;;2.26;;
15502;SDS011;7853;52.186;5.948;2023-06-04T04:44:34;4.37;;;2.26;;
15502;SDS011;7853;52.186;5.948;2023-06-04T04:45:34;4.84;;;2.50;;
15502;SDS011;7853;52.186;5.948;2023-06-04T04:46:34;6.90;;;2.46;;
15502;SDS011;7853;52.186;5.948;2023-06-04T04:47:35;4.10;;;2.40;;
15502;SDS011;7853;52.186;5.948;2023-06-04T04:48:34;4.37;;;2.19;;
15502;SDS011;7853;52.186;5.948;2023-06-04T04:49:35;4.42;;;2.28;;
15502;SDS011;7853;52.186;5.948;2023-06-04T04:50:34;4.81;;;2.55;;
15502;SDS011;7853;52.186;5.948;2023-06-04T04:51:35;5.97;;;2.48;;
15502;SDS011;7853;52.186;5.948;2023-06-04T04:52:34;4.72;;;2.51;;
15502;SDS011;7853;52.186;5.948;2023-06-04T04:53:34;5.84;;;2.45;;
15502;SDS011;7853;52.186;5.948;2023-06-04T04:54:34;4.95;;;2.57;;
15502;SDS011;7853;52.186;5.948;2023-06-04T04:55:34;5.56;;;2.46;;
15502;SDS011;7853;52.186;5.948;2023-06-04T04:56:35;4.23;;;2.19;;
15502;SDS011;7853;52.186;5.948;2023-06-04T04:57:35;4.04;;;2.33;;
15502;SDS011;7853;52.186;5.948;2023-06-04T04:58:35;5.45;;;2.44;;
15502;SDS011;7853;52.186;5.948;2023-06-04T04:59:34;5.22;;;2.32;;
15502;SDS011;7853;52.186;5.948;2023-06-04T05:00:34;4.34;;;2.32;;
15502;SDS011;7853;52.186;5.948;2023-06-04T05:01:34;5.26;;;2.59;;
15502;SDS011;7853;52.186;5.948;2023-06-04T05:02:35;3.86;;;2.38;;
15502;SDS011;7853;52.186;5.948;2023-06-04T05:03:34;6.18;;;2.66;;
15502;SDS011;7853;52.186;5.948;2023-06-04T05:04:34;4.86;;;2.48;;
15502;SDS011;7853;52.186;5.948;2023-06-04T05:05:34;5.61;;;2.48;;
15502;SDS011;7853;52.186;5.948;2023-06-04T05:06:34;5.21;;;2.50;;
15502;SDS011;7853;52.186;5.948;2023-06-04T05:07:34;4.10;;;2.24;;
15502;SDS011;7853;52.186;5.948;2023-06-04T05:08:34;5.41;;;2.43;;
15502;SDS011;7853;52.186;5.948;2023-06-04T05:09:35;3.57;;;2.48;;
15502;SDS011;7853;52.186;5.948;2023-06-04T05:10:35;4.33;;;2.41;;
15502;SDS011;7853;52.186;5.948;2023-06-04T05:11:34;4.38;;;2.35;;
15502;SDS011;7853;52.186;5.948;2023-06-04T05:12:35;4.44;;;2.77;;
15502;SDS011;7853;52.186;5.948;2023-06-04T05:13:35;5.01;;;2.43;;
15502;SDS011;7853;52.186;5.948;2023-06-04T05:14:34;4.58;;;2.33;;
15502;SDS011;7853;52.186;5.948;2023-06-04T05:15:34;4.95;;;2.55;;
15502;SDS011;7853;52.186;5.948;2023-06-04T05:16:34;4.24;;;2.38;;
15502;SDS011;7853;52.186;5.948;2023-06-04T05:17:34;5.03;;;2.52;;
15502;SDS011;7853;52.186;5.948;2023-06-04T05:18:36;5.65;;;2.69;;
15502;SDS011;7853;52.186;5.948;2023-06-04T05:19:34;4.66;;;2.54;;
15502;SDS011;7853;52.186;5.948;2023-06-04T05:20:34;5.26;;;2.61;;
15502;SDS011;7853;52.186;5.948;2023-06-04T05:21:34;4.26;;;2.39;;
15502;SDS011;7853;52.186;5.948;2023-06-04T05:22:34;4.29;;;2.31;;
15502;SDS011;7853;52.186;5.948;2023-06-04T05:23:34;4.28;;;2.40;;
15502;SDS011;7853;52.186;5.948;2023-06-04T05:24:34;4.35;;;2.34;;
15502;SDS011;7853;52.186;5.948;2023-06-04T05:25:35;4.51;;;2.46;;
15502;SDS011;7853;52.186;5.948;2023-06-04T05:26:35;5.08;;;2.74;;
15502;SDS011;7853;52.186;5.948;2023-06-04T05:27:35;5.39;;;2.49;;
15502;SDS011;7853;52.186;5.948;2023-06-04T05:28:34;4.02;;;2.29;;
15502;SDS011;7853;52.186;5.948;2023-06-04T05:29:35;4.08;;;2.24;;
15502;SDS011;7853;52.186;5.948;2023-06-04T05:30:35;5.95;;;2.60;;
15502;SDS011;7853;52.186;5.948;2023-06-04T05:31:34;4.73;;;2.35;;
15502;SDS011;7853;52.186;5.948;2023-06-04T05:32:35;4.84;;;2.55;;
15502;SDS011;7853;52.186;5.948;2023-06-04T05:33:35;4.43;;;2.48;;
15502;SDS011;7853;52.186;5.948;2023-06-04T05:34:34;5.49;;;2.55;;
15502;SDS011;7853;52.186;5.948;2023-06-04T05:35:34;4.37;;;2.68;;
15502;SDS011;7853;52.186;5.948;2023-06-04T05:36:34;6.36;;;2.52;;
15502;SDS011;7853;52.186;5.948;2023-06-04T05:37:35;5.56;;;2.56;;
15502;SDS011;7853;52.186;5.948;2023-06-04T05:38:35;4.99;;;2.81;;
15502;SDS011;7853;52.186;5.948;2023-06-04T05:39:34;4.92;;;2.61;;
15502;SDS011;7853;52.186;5.948;2023-06-04T05:40:34;4.99;;;2.50;;
15502;SDS011;7853;52.186;5.948;2023-06-04T05:41:35;5.25;;;2.48;;
15502;SDS011;7853;52.186;5.948;2023-06-04T05:42:34;4.90;;;2.47;;
15502;SDS011;7853;52.186;5.948;2023-06-04T05:43:34;3.90;;;2.33;;
15502;SDS011;7853;52.186;5.948;2023-06-04T05:44:34;6.70;;;2.63;;
15502;SDS011;7853;52.186;5.948;2023-06-04T05:45:34;5.14;;;2.33;;
15502;SDS011;7853;52.186;5.948;2023-06-04T05:46:34;4.99;;;2.64;;
15502;SDS011;7853;52.186;5.948;2023-06-04T05:47:34;3.95;;;2.29;;
15502;SDS011;7853;52.186;5.948;2023-06-04T05:48:34;5.53;;;2.53;;
15502;SDS011;7853;52.186;5.948;2023-06-04T05:49:34;5.11;;;2.44;;
15502;SDS011;7853;52.186;5.948;2023-06-04T05:50:34;4.28;;;2.37;;
15502;SDS011;7853;52.186;5.948;2023-06-04T05:51:35;4.74;;;2.34;;
15502;SDS011;7853;52.186;5.948;2023-06-04T05:52:34;5.04;;;2.43;;
15502;SDS011;7853;52.186;5.948;2023-06-04T05:53:34;4.82;;;2.48;;
15502;SDS011;7853;52.186;5.948;2023-06-04T05:54:35;4.85;;;2.41;;
15502;SDS011;7853;52.186;5.948;2023-06-04T05:55:34;4.19;;;2.41;;
15502;SDS011;7853;52.186;5.948;2023-06-04T05:56:34;3.90;;;2.66;;
15502;SDS011;7853;52.186;5.948;2023-06-04T05:57:35;5.08;;;2.59;;
15502;SDS011;7853;52.186;5.948;2023-06-04T05:58:34;5.59;;;2.62;;
15502;SDS011;7853;52.186;5.948;2023-06-04T05:59:34;5.50;;;2.43;;
15502;SDS011;7853;52.186;5.948;2023-06-04T06:00:35;3.79;;;2.43;;
15502;SDS011;7853;52.186;5.948;2023-06-04T06:01:34;5.15;;;2.54;;
15502;SDS011;7853;52.186;5.948;2023-06-04T06:02:35;5.09;;;2.45;;
15502;SDS011;7853;52.186;5.948;2023-06-04T06:03:34;5.28;;;2.55;;
15502;SDS011;7853;52.186;5.948;2023-06-04T06:04:34;4.53;;;2.35;;
15502;SDS011;7853;52.186;5.948;2023-06-04T06:05:34;4.49;;;2.70;;
15502;SDS011;7853;52.186;5.948;2023-06-04T06:06:35;5.40;;;2.61;;
15502;SDS011;7853;52.186;5.948;2023-06-04T06:07:35;3.89;;;2.46;;